createdAt,value
2022-12-09T00:00:14.792Z,0.340
2022-12-09T00:01:14.192Z,0
2022-12-09T00:02:13.043Z,0
2022-12-09T00:03:13.248Z,0.449
2022-12-09T00:04:13.205Z,0.109
2022-12-09T00:05:13.767Z,0
2022-12-09T00:06:14.505Z,0
2022-12-09T00:07:13.798Z,0
2022-12-09T00:08:13.655Z,0
2022-12-09T00:09:13.176Z,0
2022-12-09T00:10:13.865Z,0.109
2022-12-09T00:11:13.947Z,0
2022-12-09T00:12:14.258Z,0
2022-12-09T00:13:14.380Z,0.109
2022-12-09T00:14:14.457Z,0.340
2022-12-09T00:15:13.570Z,0.109
2022-12-09T00:16:18.753Z,0.219
2022-12-09T00:17:15.067Z,0
2022-12-09T00:18:18.941Z,0.340
2022-12-09T00:19:14.415Z,0.219
2022-12-09T00:20:15.152Z,0
2022-12-09T00:21:14.620Z,0
2022-12-09T00:22:18.498Z,0
2022-12-09T00:23:14.007Z,0.239
2022-12-09T00:24:13.346Z,0.219
2022-12-09T00:25:14.431Z,0.200
2022-12-09T00:26:13.522Z,0
2022-12-09T00:27:13.994Z,0.449
2022-12-09T00:28:13.876Z,0.200
2022-12-09T00:29:14.243Z,0.490
2022-12-09T00:30:15.008Z,0.219
2022-12-09T00:31:13.529Z,0.219
2022-12-09T00:32:13.784Z,0.109
2022-12-09T00:33:14.529Z,0.109
2022-12-09T00:34:13.427Z,0
2022-12-09T00:35:15.029Z,0.109
2022-12-09T00:36:14.003Z,0.109
2022-12-09T00:37:13.981Z,0
2022-12-09T00:38:14.024Z,0.109
2022-12-09T00:39:13.864Z,0.219
2022-12-09T00:40:13.912Z,0.219
2022-12-09T00:41:14.246Z,0
2022-12-09T00:42:14.004Z,0
2022-12-09T00:43:14.035Z,0.109
2022-12-09T00:44:13.607Z,0
2022-12-09T00:45:13.764Z,0
2022-12-09T00:46:12.899Z,0
2022-12-09T00:47:13.501Z,0.109
2022-12-09T00:48:13.980Z,0
2022-12-09T00:49:13.368Z,0.109
2022-12-09T00:50:13.880Z,0
2022-12-09T00:51:13.566Z,0
2022-12-09T00:52:14.079Z,0
2022-12-09T00:53:13.679Z,0.219
2022-12-09T00:54:14.371Z,0.219
2022-12-09T00:55:14.465Z,0
2022-12-09T00:56:14.544Z,0.109
2022-12-09T00:57:14.131Z,0.109
2022-12-09T00:58:13.955Z,0
2022-12-09T00:59:13.864Z,0.109
2022-12-09T01:00:14.779Z,0.340
2022-12-09T01:01:16.225Z,0
2022-12-09T01:03:14.266Z,0.219
2022-12-09T01:04:14.116Z,0.340
2022-12-09T01:05:14.453Z,0.219
2022-12-09T01:06:13.909Z,0.109
2022-12-09T01:07:13.385Z,0
2022-12-09T01:08:13.740Z,0
2022-12-09T01:09:13.437Z,0
2022-12-09T01:10:14.046Z,0.109
2022-12-09T01:11:13.899Z,0
2022-12-09T01:12:13.717Z,0
2022-12-09T01:13:13.205Z,0
2022-12-09T01:14:13.308Z,0
2022-12-09T01:15:13.605Z,0
2022-12-09T01:16:13.998Z,0
2022-12-09T01:17:14.344Z,0
2022-12-09T01:18:14.179Z,0
2022-12-09T01:19:13.192Z,0
2022-12-09T01:20:13.773Z,0
2022-12-09T01:21:13.459Z,0
2022-12-09T01:22:13.826Z,0
2022-12-09T01:23:13.226Z,0
2022-12-09T01:24:13.152Z,0
2022-12-09T01:25:13.519Z,0
2022-12-09T01:26:13.953Z,0
2022-12-09T01:27:13.169Z,0
2022-12-09T01:28:13.095Z,0
2022-12-09T01:29:13.535Z,0
2022-12-09T01:30:13.997Z,0
2022-12-09T01:31:13.890Z,0
2022-12-09T01:32:13.747Z,0
2022-12-09T01:33:13.298Z,0
2022-12-09T01:34:12.964Z,0
2022-12-09T01:35:12.909Z,0
2022-12-09T01:36:13.975Z,0
2022-12-09T01:37:12.817Z,13600
2022-12-09T01:38:13.867Z,0
2022-12-09T01:39:12.735Z,0
2022-12-09T01:40:14.866Z,0
2022-12-09T01:41:13.526Z,0
2022-12-09T01:42:13.240Z,0
2022-12-09T01:43:12.880Z,0
2022-12-09T01:44:13.722Z,0
2022-12-09T01:45:15.136Z,0
2022-12-09T01:46:13.398Z,0
2022-12-09T01:47:14.448Z,0
2022-12-09T01:48:13.106Z,0
2022-12-09T01:49:13.308Z,0
2022-12-09T01:50:13.228Z,0
2022-12-09T01:51:13.192Z,0
2022-12-09T01:52:13.613Z,0
2022-12-09T01:53:12.614Z,0
2022-12-09T01:54:12.631Z,0
2022-12-09T01:55:13.517Z,0
2022-12-09T01:56:13.884Z,0
2022-12-09T01:57:14.119Z,0
2022-12-09T01:58:13.590Z,0
2022-12-09T01:59:14.161Z,0
2022-12-09T02:00:14.494Z,0
2022-12-09T02:01:13.940Z,0
2022-12-09T02:02:13.790Z,0.560
2022-12-09T02:03:13.623Z,0
2022-12-09T02:04:13.692Z,0.219
2022-12-09T02:05:13.881Z,0.109
2022-12-09T02:06:13.458Z,0.340
2022-12-09T02:07:13.418Z,0.219
2022-12-09T02:08:13.660Z,0.109
2022-12-09T02:09:14.190Z,0.340
2022-12-09T02:10:14.342Z,0.219
2022-12-09T02:11:13.572Z,0
2022-12-09T02:12:13.211Z,0
2022-12-09T02:13:13.182Z,0
2022-12-09T02:14:13.549Z,0
2022-12-09T02:15:14.140Z,0
2022-12-09T02:16:12.867Z,0
2022-12-09T02:17:13.291Z,0
2022-12-09T02:18:14.065Z,0
2022-12-09T02:19:14.347Z,0
2022-12-09T02:20:13.725Z,0
2022-12-09T02:21:13.794Z,0
2022-12-09T02:22:12.681Z,0
2022-12-09T02:23:13.916Z,0
2022-12-09T02:24:13.161Z,0
2022-12-09T02:25:13.369Z,0
2022-12-09T02:26:13.275Z,0
2022-12-09T02:27:14.036Z,0
2022-12-09T02:28:13.980Z,0
2022-12-09T02:29:13.738Z,0
2022-12-09T02:30:14.232Z,0
2022-12-09T02:31:13.748Z,0.680
2022-12-09T02:32:13.813Z,0
2022-12-09T02:33:13.363Z,0
2022-12-09T02:34:13.629Z,0
2022-12-09T02:35:13.550Z,0
2022-12-09T02:36:14.213Z,0
2022-12-09T02:37:13.323Z,0
2022-12-09T02:38:13.792Z,0
2022-12-09T02:39:14.012Z,0
2022-12-09T02:40:14.308Z,0
2022-12-09T02:41:13.875Z,0
2022-12-09T02:42:13.482Z,0
2022-12-09T02:43:18.451Z,0.219
2022-12-09T02:44:13.672Z,0.449
2022-12-09T02:45:14.181Z,0.109
2022-12-09T02:46:13.303Z,0.219
2022-12-09T02:47:13.957Z,0
2022-12-09T02:48:13.090Z,0.109
2022-12-09T02:49:13.545Z,0.219
2022-12-09T02:50:14.696Z,0
2022-12-09T02:51:13.645Z,0.219
2022-12-09T02:52:13.275Z,0.219
2022-12-09T02:53:12.620Z,0.219
2022-12-09T02:54:14.178Z,0.449
2022-12-09T02:55:14.289Z,0
2022-12-09T02:56:13.190Z,0.340
2022-12-09T02:57:13.140Z,0.340
2022-12-09T02:58:13.070Z,0.109
2022-12-09T02:59:13.136Z,0.219
2022-12-09T03:00:14.427Z,0.340
2022-12-09T03:01:14.134Z,0.109
2022-12-09T03:02:13.288Z,0.219
2022-12-09T03:03:14.328Z,0.109
2022-12-09T03:04:13.448Z,0.449
2022-12-09T03:05:14.242Z,0.340
2022-12-09T03:06:13.814Z,0.109
2022-12-09T03:07:13.772Z,0
2022-12-09T03:08:13.417Z,0.109
2022-12-09T03:09:13.685Z,0.560
2022-12-09T03:10:14.009Z,0
2022-12-09T03:11:14.407Z,0
2022-12-09T03:12:13.288Z,0
2022-12-09T03:13:13.514Z,0
2022-12-09T03:14:12.576Z,0
2022-12-09T03:15:13.123Z,0
2022-12-09T03:16:13.212Z,0
2022-12-09T03:17:13.755Z,0
2022-12-09T03:18:13.000Z,0
2022-12-09T03:19:13.656Z,0
2022-12-09T03:20:14.386Z,0
2022-12-09T03:21:13.462Z,0
2022-12-09T03:22:13.138Z,0
2022-12-09T03:23:13.273Z,0
2022-12-09T03:24:13.538Z,0
2022-12-09T03:25:14.005Z,0
2022-12-09T03:26:13.181Z,0
2022-12-09T03:27:13.400Z,0
2022-12-09T03:28:13.168Z,0.449
2022-12-09T03:29:14.273Z,0.340
2022-12-09T03:30:14.141Z,0.560
2022-12-09T03:31:13.888Z,0.340
2022-12-09T03:32:13.336Z,0.449
2022-12-09T03:33:13.584Z,0.340
2022-12-09T03:34:12.748Z,0.219
2022-12-09T03:35:13.834Z,0.449
2022-12-09T03:36:12.695Z,0
2022-12-09T03:37:13.747Z,0.449
2022-12-09T03:38:13.508Z,0.219
2022-12-09T03:39:13.490Z,0.560
2022-12-09T03:40:14.305Z,0.340
2022-12-09T03:41:13.028Z,0.109
2022-12-09T03:42:13.552Z,0.340
2022-12-09T03:43:13.382Z,0.340
2022-12-09T03:44:13.239Z,0.340
2022-12-09T03:45:13.594Z,0.109
2022-12-09T03:46:13.103Z,0.109
2022-12-09T03:47:13.258Z,0.109
2022-12-09T03:48:13.261Z,0.219
2022-12-09T03:49:13.576Z,0.560
2022-12-09T03:50:13.380Z,0.219
2022-12-09T03:51:12.731Z,0.340
2022-12-09T03:52:13.467Z,0.449
2022-12-09T03:53:13.019Z,0.449
2022-12-09T03:54:13.439Z,0.219
2022-12-09T03:55:13.105Z,0.109
2022-12-09T03:56:12.983Z,0.219
2022-12-09T03:57:17.080Z,0.790
2022-12-09T03:58:14.391Z,0.340
2022-12-09T03:59:13.841Z,0.109
2022-12-09T04:00:14.851Z,0.219
2022-12-09T04:01:14.500Z,0.219
2022-12-09T04:02:13.634Z,0.219
2022-12-09T04:03:14.695Z,0.219
2022-12-09T04:04:14.007Z,0.340
2022-12-09T04:05:14.582Z,0.219
2022-12-09T04:06:14.203Z,0.449
2022-12-09T04:07:13.772Z,0.219
2022-12-09T04:08:13.054Z,0.219
2022-12-09T04:09:14.257Z,0.560
2022-12-09T04:10:13.603Z,0.449
2022-12-09T04:11:13.821Z,0.560
2022-12-09T04:12:13.479Z,0
2022-12-09T04:13:14.370Z,0.680
2022-12-09T04:14:15.748Z,0.219
2022-12-09T04:15:13.904Z,0.680
2022-12-09T04:16:13.414Z,0.560
2022-12-09T04:17:14.642Z,0.449
2022-12-09T04:18:14.661Z,0.449
2022-12-09T04:19:13.809Z,0.449
2022-12-09T04:20:14.036Z,0.449
2022-12-09T04:21:13.401Z,0.340
2022-12-09T04:22:14.010Z,0
2022-12-09T04:23:14.551Z,0.560
2022-12-09T04:24:14.936Z,0.340
2022-12-09T04:25:15.107Z,0.560
2022-12-09T04:26:14.887Z,0.449
2022-12-09T04:27:14.711Z,0.109
2022-12-09T04:28:14.036Z,0.219
2022-12-09T04:29:13.997Z,0.340
2022-12-09T04:30:14.047Z,0.560
2022-12-09T04:31:14.687Z,0
2022-12-09T04:32:14.300Z,0.340
2022-12-09T04:33:13.445Z,0.219
2022-12-09T04:34:13.948Z,0.340
2022-12-09T04:35:12.661Z,0.219
2022-12-09T04:36:13.176Z,0.109
2022-12-09T04:37:13.942Z,0.370
2022-12-09T04:38:14.193Z,0.409
2022-12-09T04:39:13.423Z,0.490
2022-12-09T04:40:18.207Z,0.449
2022-12-09T04:41:13.220Z,0.519
2022-12-09T04:42:13.274Z,0.370
2022-12-09T04:43:13.988Z,0.790
2022-12-09T04:44:13.041Z,0.310
2022-12-09T04:45:13.772Z,0.119
2022-12-09T04:46:12.805Z,0.109
2022-12-09T04:47:13.558Z,0.340
2022-12-09T04:48:13.179Z,0.109
2022-12-09T04:49:13.107Z,0.449
2022-12-09T04:50:13.960Z,0.219
2022-12-09T04:51:13.730Z,0.340
2022-12-09T04:52:13.717Z,0.449
2022-12-09T04:53:13.341Z,0.340
2022-12-09T04:54:13.072Z,0.219
2022-12-09T04:55:13.172Z,0.219
2022-12-09T04:56:12.820Z,0.449
2022-12-09T04:57:13.774Z,0.560
2022-12-09T04:58:13.693Z,0.340
2022-12-09T04:59:13.483Z,0.340
2022-12-09T05:00:15.188Z,0.680
2022-12-09T05:01:13.240Z,0.449
2022-12-09T05:02:13.565Z,0.219
2022-12-09T05:03:13.650Z,0.219
2022-12-09T05:04:13.991Z,0.340
2022-12-09T05:05:13.986Z,0.109
2022-12-09T05:06:17.848Z,0.340
2022-12-09T05:07:13.203Z,0.219
2022-12-09T05:08:13.955Z,0.340
2022-12-09T05:09:14.287Z,0.340
2022-12-09T05:10:14.395Z,0.219
2022-12-09T05:11:14.030Z,0.340
2022-12-09T05:12:13.611Z,0.449
2022-12-09T05:13:13.561Z,0.109
2022-12-09T05:14:13.754Z,0.340
2022-12-09T05:15:13.251Z,0.109
2022-12-09T05:16:16.991Z,0.449
2022-12-09T05:17:14.422Z,0.560
2022-12-09T05:18:19.641Z,0.790
2022-12-09T05:19:13.954Z,0.449
2022-12-09T05:20:14.660Z,0.449
2022-12-09T05:21:13.135Z,0.340
2022-12-09T05:22:14.025Z,0.109
2022-12-09T05:23:13.762Z,0.219
2022-12-09T05:24:13.749Z,0.219
2022-12-09T05:25:14.466Z,0.109
2022-12-09T05:26:13.926Z,0.219
2022-12-09T05:27:13.175Z,0.560
2022-12-09T05:28:13.938Z,0.109
2022-12-09T05:29:17.912Z,0.449
2022-12-09T05:30:14.840Z,0.219
2022-12-09T05:31:13.836Z,0.340
2022-12-09T05:32:13.217Z,0.219
2022-12-09T05:33:14.564Z,0.219
2022-12-09T05:34:13.066Z,0.560
2022-12-09T05:35:13.838Z,0.340
2022-12-09T05:36:13.169Z,0.109
2022-12-09T05:37:14.039Z,0.219
2022-12-09T05:38:14.053Z,0.109
2022-12-09T05:39:12.948Z,0.340
2022-12-09T05:40:14.161Z,0.449
2022-12-09T05:41:14.743Z,0.109
2022-12-09T05:42:13.339Z,0.449
2022-12-09T05:43:13.894Z,0.340
2022-12-09T05:44:12.996Z,0.219
2022-12-09T05:45:13.149Z,0.340
2022-12-09T05:46:13.175Z,0.560
2022-12-09T05:47:14.175Z,0.340
2022-12-09T05:48:13.346Z,0.449
2022-12-09T05:49:12.839Z,0.219
2022-12-09T05:50:13.952Z,0.219
2022-12-09T05:51:13.138Z,0.449
2022-12-09T05:52:13.921Z,0.340
2022-12-09T05:53:13.455Z,0
2022-12-09T05:54:13.649Z,0
2022-12-09T05:55:14.252Z,0
2022-12-09T05:56:13.985Z,0
2022-12-09T05:57:13.758Z,0
2022-12-09T05:58:13.217Z,0
2022-12-09T05:59:13.237Z,0
2022-12-09T06:00:14.692Z,0
2022-12-09T06:01:13.234Z,0
2022-12-09T06:02:14.034Z,0
2022-12-09T06:03:14.450Z,0
2022-12-09T06:04:13.366Z,0
2022-12-09T06:05:14.019Z,0
2022-12-09T06:06:13.754Z,0
2022-12-09T06:07:14.311Z,0
2022-12-09T06:08:13.421Z,0
2022-12-09T06:09:14.185Z,0
2022-12-09T06:10:14.526Z,0
2022-12-09T06:11:12.967Z,0
2022-12-09T06:12:13.035Z,0
2022-12-09T06:13:12.831Z,0
2022-12-09T06:14:13.393Z,0
2022-12-09T06:15:18.735Z,0
2022-12-09T06:16:13.819Z,0
2022-12-09T06:17:14.338Z,0
2022-12-09T06:18:13.153Z,0
2022-12-09T06:19:13.420Z,0
2022-12-09T06:20:14.563Z,0
2022-12-09T06:21:14.085Z,0
2022-12-09T06:22:13.957Z,0
2022-12-09T06:23:14.271Z,0
2022-12-09T06:24:13.767Z,0
2022-12-09T06:25:14.651Z,0
2022-12-09T06:26:13.738Z,0
2022-12-09T06:27:13.492Z,0
2022-12-09T06:28:14.198Z,0
2022-12-09T06:29:13.980Z,0
2022-12-09T06:30:15.006Z,0
2022-12-09T06:31:13.318Z,0
2022-12-09T06:32:14.408Z,0
2022-12-09T06:33:37.284Z,13600
2022-12-09T06:34:13.827Z,13600
2022-12-09T06:35:14.287Z,13600
2022-12-09T06:36:13.797Z,13600
2022-12-09T06:37:13.273Z,13600
2022-12-09T06:38:14.747Z,13600
2022-12-09T06:39:13.709Z,13600
2022-12-09T06:40:14.001Z,13600
2022-12-09T06:41:13.673Z,13600
2022-12-09T06:42:13.181Z,13600
2022-12-09T06:43:13.382Z,13600
2022-12-09T06:44:20.019Z,13600
2022-12-09T06:45:14.515Z,13600
2022-12-09T06:46:14.032Z,0
2022-12-09T06:47:13.464Z,0
2022-12-09T06:48:13.195Z,0
2022-12-09T06:49:14.377Z,0
2022-12-09T06:50:13.920Z,0
2022-12-09T06:51:13.053Z,0.620
2022-12-09T06:52:13.564Z,0.680
2022-12-09T06:53:13.718Z,0.959
2022-12-09T06:54:14.116Z,0.670
2022-12-09T06:55:14.643Z,1.049
2022-12-09T06:56:14.312Z,1.990
2022-12-09T06:57:14.453Z,2.140
2022-12-09T06:58:14.545Z,3.480
2022-12-09T06:59:15.011Z,3.700
2022-12-09T07:00:15.370Z,5
2022-12-09T07:01:14.773Z,6.119
2022-12-09T07:02:14.634Z,7.530
2022-12-09T07:03:14.799Z,9.180
2022-12-09T07:04:13.980Z,11.18
2022-12-09T07:05:14.334Z,12.92
2022-12-09T07:06:13.612Z,15.46
2022-12-09T07:07:13.602Z,18
2022-12-09T07:08:13.499Z,20.29
2022-12-09T07:09:13.967Z,23.42
2022-12-09T07:10:14.602Z,26.10
2022-12-09T07:11:13.981Z,29.5
2022-12-09T07:12:13.951Z,33.40
2022-12-09T07:13:13.947Z,37.40
2022-12-09T07:14:14.155Z,41.5
2022-12-09T07:15:15.166Z,45.90
2022-12-09T07:16:14.350Z,50.70
2022-12-09T07:17:14.732Z,54.29
2022-12-09T07:18:13.863Z,57.90
2022-12-09T07:19:14.900Z,61.40
2022-12-09T07:20:14.853Z,65.09
2022-12-09T07:21:13.411Z,69
2022-12-09T07:22:13.367Z,72.5
2022-12-09T07:23:13.724Z,76.5
2022-12-09T07:24:14.028Z,80.19
2022-12-09T07:25:13.983Z,84.19
2022-12-09T07:26:14.458Z,88.59
2022-12-09T07:27:19.271Z,93.09
2022-12-09T07:28:14.035Z,98.40
2022-12-09T07:29:13.541Z,103.8
2022-12-09T07:30:14.261Z,110.4
2022-12-09T07:31:13.786Z,116.9
2022-12-09T07:32:14.659Z,123.5
2022-12-09T07:33:13.279Z,130.5
2022-12-09T07:34:13.662Z,137.1
2022-12-09T07:35:15.646Z,141.8
2022-12-09T07:36:19.170Z,146.3
2022-12-09T07:37:18.834Z,151
2022-12-09T07:38:13.410Z,156.6
2022-12-09T07:39:14.732Z,162.5
2022-12-09T07:40:14.407Z,168.8
2022-12-09T07:41:13.627Z,177.3
2022-12-09T07:42:13.375Z,186
2022-12-09T07:43:13.335Z,194.8
2022-12-09T07:44:14.635Z,206
2022-12-09T07:45:22.101Z,214.6
2022-12-09T07:46:13.590Z,221.8
2022-12-09T07:47:14.146Z,230.3
2022-12-09T07:48:13.610Z,240
2022-12-09T07:49:21.869Z,254
2022-12-09T07:50:14.971Z,268
2022-12-09T07:51:14.139Z,285
2022-12-09T07:52:14.021Z,303
2022-12-09T07:53:14.890Z,325
2022-12-09T07:54:14.578Z,347
2022-12-09T07:55:15.521Z,367
2022-12-09T07:56:13.951Z,385
2022-12-09T07:57:14.323Z,400
2022-12-09T07:58:13.620Z,414
2022-12-09T07:59:13.790Z,427
2022-12-09T08:00:14.706Z,445
2022-12-09T08:01:28.361Z,466
2022-12-09T08:02:14.176Z,488
2022-12-09T08:03:14.016Z,508
2022-12-09T08:04:14.462Z,524
2022-12-09T08:05:15.181Z,539
2022-12-09T08:06:13.960Z,552
2022-12-09T08:07:14.149Z,564
2022-12-09T08:08:14.510Z,581
2022-12-09T08:09:13.990Z,600
2022-12-09T08:10:14.066Z,620
2022-12-09T08:11:14.782Z,660
2022-12-09T08:12:15.142Z,690
2022-12-09T08:13:14.265Z,733
2022-12-09T08:14:14.172Z,764
2022-12-09T08:15:15.073Z,800
2022-12-09T08:16:14.400Z,840
2022-12-09T08:17:14.196Z,900
2022-12-09T08:18:13.678Z,940
2022-12-09T08:19:14.596Z,947
2022-12-09T08:20:15.593Z,924
2022-12-09T08:21:14.165Z,898
2022-12-09T08:22:14.743Z,886.7
2022-12-09T08:23:14.322Z,898
2022-12-09T08:24:14.648Z,920
2022-12-09T08:25:15.125Z,960
2022-12-09T08:26:15.276Z,980.5
2022-12-09T08:27:14.068Z,985.1
2022-12-09T08:28:15.059Z,986.0
2022-12-09T08:29:14.316Z,993
2022-12-09T08:30:15.072Z,1008
2022-12-09T08:31:14.558Z,1028
2022-12-09T08:32:14.378Z,1051
2022-12-09T08:33:14.977Z,1072
2022-12-09T08:34:14.436Z,1087
2022-12-09T08:35:13.763Z,1098
2022-12-09T08:36:14.519Z,1114
2022-12-09T08:37:13.995Z,1140
2022-12-09T08:38:14.333Z,1180
2022-12-09T08:39:14.826Z,1230
2022-12-09T08:40:14.779Z,1270
2022-12-09T08:41:14.492Z,1292.
2022-12-09T08:42:14.729Z,1286
2022-12-09T08:43:13.392Z,1270
2022-12-09T08:44:13.672Z,1255.
2022-12-09T08:45:13.930Z,1261
2022-12-09T08:46:14.205Z,1290
2022-12-09T08:47:14.775Z,1350
2022-12-09T08:48:14.298Z,1420
2022-12-09T08:49:14.498Z,1480
2022-12-09T08:50:15.015Z,1518
2022-12-09T08:51:14.582Z,1546
2022-12-09T08:52:14.355Z,1570
2022-12-09T08:53:14.621Z,1610
2022-12-09T08:54:14.600Z,1660
2022-12-09T08:55:15.218Z,1730
2022-12-09T08:56:15.477Z,1810
2022-12-09T08:57:15.492Z,1890
2022-12-09T08:58:14.222Z,1960
2022-12-09T08:59:13.795Z,2008
2022-12-09T09:00:15.157Z,2015.
2022-12-09T09:01:14.137Z,2015.
2022-12-09T09:02:14.653Z,2020
2022-12-09T09:03:14.889Z,2045
2022-12-09T09:04:14.632Z,2080
2022-12-09T09:05:14.521Z,2096.
2022-12-09T09:06:14.808Z,2070
2022-12-09T09:07:14.041Z,2020
2022-12-09T09:08:13.512Z,1970
2022-12-09T09:09:14.324Z,1943
2022-12-09T09:10:14.827Z,1942
2022-12-09T09:11:13.463Z,1980
2022-12-09T09:12:14.111Z,2050
2022-12-09T09:13:14.373Z,2140
2022-12-09T09:14:14.109Z,2220
2022-12-09T09:15:15.815Z,2300
2022-12-09T09:16:14.933Z,2400
2022-12-09T09:17:13.760Z,2500
2022-12-09T09:18:14.228Z,2600
2022-12-09T09:19:14.950Z,2780
2022-12-09T09:20:14.880Z,2770
2022-12-09T09:21:13.949Z,2690
2022-12-09T09:22:14.435Z,2630
2022-12-09T09:23:13.256Z,2625
2022-12-09T09:24:14.213Z,2670
2022-12-09T09:25:15.066Z,2720
2022-12-09T09:26:14.465Z,2736
2022-12-09T09:27:14.769Z,2680
2022-12-09T09:28:13.682Z,2600
2022-12-09T09:29:13.707Z,2540
2022-12-09T09:30:14.534Z,2512
2022-12-09T09:31:14.348Z,2493.
2022-12-09T09:32:13.357Z,2489.
2022-12-09T09:33:13.982Z,2488.
2022-12-09T09:34:14.229Z,2490.
2022-12-09T09:35:13.839Z,2510
2022-12-09T09:36:14.941Z,2560
2022-12-09T09:37:14.112Z,2597
2022-12-09T09:38:14.042Z,2580
2022-12-09T09:39:14.603Z,2540
2022-12-09T09:40:14.400Z,2480
2022-12-09T09:41:13.945Z,2437
2022-12-09T09:42:14.176Z,2423
2022-12-09T09:43:13.636Z,2440
2022-12-09T09:44:14.076Z,2490
2022-12-09T09:45:13.911Z,2500
2022-12-09T09:46:13.910Z,2700
2022-12-09T09:47:13.923Z,2800
2022-12-09T09:48:14.078Z,3000
2022-12-09T09:49:13.895Z,3100
2022-12-09T09:50:13.404Z,3190
2022-12-09T09:51:13.860Z,3208
2022-12-09T09:52:14.555Z,3160
2022-12-09T09:53:14.159Z,3090
2022-12-09T09:54:13.398Z,2900
2022-12-09T09:55:13.916Z,2800
2022-12-09T09:56:13.762Z,2790
2022-12-09T09:57:14.423Z,2720
2022-12-09T09:58:13.708Z,2687
2022-12-09T09:59:14.316Z,2675.
2022-12-09T10:00:20.151Z,2688
2022-12-09T10:01:13.767Z,2707
2022-12-09T10:02:13.855Z,2706
2022-12-09T10:03:14.236Z,2670
2022-12-09T10:04:14.067Z,2610
2022-12-09T10:05:14.627Z,2530
2022-12-09T10:06:13.776Z,2460
2022-12-09T10:07:13.384Z,2430
2022-12-09T10:08:13.536Z,2441
2022-12-09T10:09:14.233Z,2470
2022-12-09T10:10:21.526Z,2512
2022-12-09T10:11:13.923Z,2527.
2022-12-09T10:12:13.516Z,2517
2022-12-09T10:13:18.355Z,2499
2022-12-09T10:14:14.066Z,2489.
2022-12-09T10:15:15.080Z,2500
2022-12-09T10:16:14.336Z,2534
2022-12-09T10:17:14.524Z,2557
2022-12-09T10:18:14.606Z,2590
2022-12-09T10:19:14.777Z,2630
2022-12-09T10:20:29.566Z,2690
2022-12-09T10:21:15.088Z,2700
2022-12-09T10:22:13.787Z,2800
2022-12-09T10:23:14.748Z,3000
2022-12-09T10:24:14.979Z,3200
2022-12-09T10:25:14.133Z,3400
2022-12-09T10:26:14.356Z,3600
2022-12-09T10:27:14.052Z,3800
2022-12-09T10:28:13.710Z,4000
2022-12-09T10:29:14.215Z,4100
2022-12-09T10:30:15.628Z,4200
2022-12-09T10:31:13.688Z,4400
2022-12-09T10:32:13.057Z,4600
2022-12-09T10:33:15.140Z,4800
2022-12-09T10:34:14.395Z,5000
2022-12-09T10:35:14.291Z,5120
2022-12-09T10:36:14.250Z,5153
2022-12-09T10:37:14.666Z,5110
2022-12-09T10:38:14.072Z,4900
2022-12-09T10:39:14.093Z,4800
2022-12-09T10:40:15.122Z,4600
2022-12-09T10:41:15.277Z,4400
2022-12-09T10:42:14.716Z,4410
2022-12-09T10:43:13.818Z,4350
2022-12-09T10:44:14.199Z,4290
2022-12-09T10:45:14.493Z,4220
2022-12-09T10:46:19.225Z,4140
2022-12-09T10:47:13.603Z,4090
2022-12-09T10:48:13.951Z,4060
2022-12-09T10:49:14.447Z,4032
2022-12-09T10:50:15.392Z,4010.
2022-12-09T10:51:14.170Z,4040
2022-12-09T10:52:14.085Z,4100
2022-12-09T10:53:14.317Z,4200
2022-12-09T10:54:17.899Z,4400
2022-12-09T10:55:13.968Z,4500
2022-12-09T10:56:14.453Z,4680
2022-12-09T10:57:14.572Z,4760
2022-12-09T10:58:14.381Z,4800
2022-12-09T10:59:13.877Z,4900
2022-12-09T11:00:15.449Z,5100
2022-12-09T11:01:14.047Z,5300
2022-12-09T11:02:15.046Z,5450
2022-12-09T11:03:14.560Z,5530
2022-12-09T11:04:13.529Z,5590
2022-12-09T11:05:14.900Z,5660
2022-12-09T11:06:14.337Z,5750
2022-12-09T11:07:14.087Z,5807
2022-12-09T11:08:13.728Z,5770
2022-12-09T11:09:14.542Z,5600
2022-12-09T11:10:15.283Z,5500
2022-12-09T11:11:13.789Z,5300
2022-12-09T11:12:14.208Z,5200
2022-12-09T11:13:14.537Z,5100
2022-12-09T11:14:13.973Z,5000
2022-12-09T11:15:14.164Z,4900
2022-12-09T11:16:15.084Z,4700
2022-12-09T11:17:14.609Z,4600
2022-12-09T11:18:14.327Z,4560
2022-12-09T11:19:13.600Z,4510
2022-12-09T11:20:14.392Z,4490
2022-12-09T11:21:14.403Z,4430
2022-12-09T11:23:14.635Z,4430
2022-12-09T11:24:14.832Z,4480
2022-12-09T11:25:14.068Z,4400
2022-12-09T11:26:14.471Z,4200
2022-12-09T11:27:14.244Z,4100
2022-12-09T11:28:13.778Z,4080
2022-12-09T11:29:14.092Z,4180
2022-12-09T11:30:14.309Z,4231
2022-12-09T11:31:29.158Z,4270
2022-12-09T11:32:13.641Z,4400
2022-12-09T11:33:13.382Z,4500
2022-12-09T11:34:13.334Z,4600
2022-12-09T11:35:13.673Z,4710
2022-12-09T11:36:13.580Z,4670
2022-12-09T11:37:14.281Z,4654
2022-12-09T11:38:14.409Z,4700
2022-12-09T11:39:14.449Z,4812
2022-12-09T11:40:14.222Z,4700
2022-12-09T11:41:13.958Z,4000
2022-12-09T11:42:16.976Z,3000
2022-12-09T11:43:14.174Z,3000
2022-12-09T11:44:13.396Z,2800
2022-12-09T11:45:14.880Z,2660
2022-12-09T11:46:13.641Z,2700
2022-12-09T11:47:14.628Z,3000
2022-12-09T11:48:27.721Z,3000
2022-12-09T11:49:12.474Z,4000
2022-12-09T11:50:14.260Z,5000
2022-12-09T11:51:14.090Z,6000
2022-12-09T11:52:13.596Z,6000
2022-12-09T11:53:14.305Z,7000
2022-12-09T11:54:13.450Z,7900
2022-12-09T11:55:14.159Z,0
2022-12-09T11:56:13.926Z,0
2022-12-09T11:57:15.251Z,4900
2022-12-09T11:58:15.016Z,4880
2022-12-09T11:59:14.780Z,5000
2022-12-09T12:00:14.635Z,4900
2022-12-09T12:01:13.422Z,4000
2022-12-09T12:02:13.733Z,4200
2022-12-09T12:03:14.006Z,4120
2022-12-09T12:04:13.562Z,4000
2022-12-09T12:05:16.888Z,4000
2022-12-09T12:06:13.903Z,5000
2022-12-09T12:07:13.044Z,4000
2022-12-09T12:08:13.478Z,3000
2022-12-09T12:09:13.779Z,3400
2022-12-09T12:10:13.596Z,3400
2022-12-09T12:11:15.704Z,3600
2022-12-09T12:12:13.699Z,3700
2022-12-09T12:13:13.897Z,3500
2022-12-09T12:14:14.073Z,3600
2022-12-09T12:15:13.736Z,3800
2022-12-09T12:16:13.577Z,3878
2022-12-09T12:17:15.085Z,3873
2022-12-09T12:18:13.615Z,3907
2022-12-09T12:19:13.790Z,3870
2022-12-09T12:20:14.507Z,3810
2022-12-09T12:21:13.308Z,3800
2022-12-09T12:22:14.192Z,3890
2022-12-09T12:23:14.427Z,3893
2022-12-09T12:24:13.864Z,3900
2022-12-09T12:25:18.983Z,4100
2022-12-09T12:26:13.343Z,4300
2022-12-09T12:27:14.374Z,4500
2022-12-09T12:28:13.588Z,4630
2022-12-09T12:29:14.188Z,4500
2022-12-09T12:30:13.764Z,4000
2022-12-09T12:31:18.864Z,3000
2022-12-09T12:32:13.568Z,3000
2022-12-09T12:34:00.425Z,2900
2022-12-09T12:34:24.951Z,2950
2022-12-09T12:35:14.340Z,3000
2022-12-09T12:36:13.284Z,3200
2022-12-09T12:37:13.865Z,3280
2022-12-09T12:38:13.259Z,3231
2022-12-09T12:39:13.939Z,3180
2022-12-09T12:40:13.943Z,3110
2022-12-09T12:41:14.025Z,3040
2022-12-09T12:42:14.008Z,2990
2022-12-09T12:43:27.510Z,2800
2022-12-09T12:44:13.867Z,2710
2022-12-09T12:45:13.494Z,2700
2022-12-09T12:46:13.906Z,2820
2022-12-09T12:47:13.837Z,2900
2022-12-09T12:48:14.639Z,3000
2022-12-09T12:49:14.054Z,3000
2022-12-09T12:50:13.499Z,3000
2022-12-09T12:51:14.194Z,4000
2022-12-09T12:52:47.011Z,5000
2022-12-09T12:53:13.334Z,5286
2022-12-09T12:54:14.007Z,5270
2022-12-09T12:55:14.520Z,5100
2022-12-09T12:56:13.843Z,5000
2022-12-09T12:57:13.564Z,4000
2022-12-09T12:58:13.902Z,3000
2022-12-09T12:59:13.071Z,3300
2022-12-09T13:00:14.588Z,3500
2022-12-09T13:01:13.673Z,3500
2022-12-09T13:02:13.616Z,3300
2022-12-09T13:03:13.619Z,3240
2022-12-09T13:04:14.354Z,3300
2022-12-09T13:05:14.424Z,3000
2022-12-09T13:06:13.892Z,2000
2022-12-09T13:07:13.764Z,2000
2022-12-09T13:08:13.283Z,2000
2022-12-09T13:09:13.469Z,1960
2022-12-09T13:10:14.455Z,1880
2022-12-09T13:11:14.471Z,1790
2022-12-09T13:12:14.164Z,1710
2022-12-09T13:13:13.554Z,1720
2022-12-09T13:14:14.359Z,1810
2022-12-09T13:15:14.045Z,1800
2022-12-09T13:16:14.055Z,1500
2022-12-09T13:17:13.682Z,1490
2022-12-09T13:18:13.241Z,1500
2022-12-09T13:19:13.703Z,1700
2022-12-09T13:20:14.826Z,1600
2022-12-09T13:21:14.773Z,1400
2022-12-09T13:22:13.543Z,1340
2022-12-09T13:23:14.035Z,1400
2022-12-09T13:24:13.599Z,1500
2022-12-09T13:25:14.352Z,1700
2022-12-09T13:26:13.714Z,1798
2022-12-09T13:27:14.003Z,1810
2022-12-09T13:28:13.636Z,1000
2022-12-09T13:29:14.437Z,1300
2022-12-09T13:30:14.493Z,1100
2022-12-09T13:31:13.963Z,1030